KBFI

King County International Airport

Airport
ICAO code
KBFI
IATA Code
BFI
Summary
ICAO Region
NAM
ICAO Territory
Location

Georgetown, Washington

Serving
Seattle
Elevation
21 ft
Coordinates
47° 32' 12" N , 122° 18' 14" W
KCC
Airport LOS
Parallel Runway Operation
Metar
KBFI 040753Z 20007G17KT 160V230 10SM OVC017 03/01 A2977 RMK AO2 SLP079 T00330011 400670017

Boeing Field, officially King County International Airport, is a public airport located 5 nm south of the central business district of Seattle, Washington, USA.

Airport map

Aerial View

SKYbrary Partners:

Safety knowledge contributed by: